Main page
METAR-TAF:

METAR-TAF

Airports :

Springfield–Beckley Municipal Airport

Springfield, Ohio, United States

latitude: 39-50N, longitude: 083-50W, elevation: 1053 ft

Current weather observation

The report was made 1 hour and 1 minutes ago, at 09:56 UTC
Wind 8 mph from the South/Southwest
Temperature 32°F
Humidity 55%
Pressure 30.16 in. Hg
Visibility: 10 miles
Clear sky

METAR: KSGH 230956Z AUTO 20007KT 10SM CLR 00/M08 A3016 RMK AO2 SLP223 T00001078

Time: 05:57 (10:57 UTC)


TAF: missing

Weather observations and forecasts of more than 4000 airports (METAR and TAF reports).

The available stations are represented by yellow and red dots on the map.

Hover mouse over dot to see the name of the station.

Then click to see weather observations and forecasts.

To change the map : click on the green buttons with a black cross to zoom in, on the green button with a dash to zoom out, or on the green arrows for adjacent maps.


METAR-TAF: